Time;durP1;ratioP1;P1;durP2;ratioP2;P2;SDS_P1;SDS_P2;PMS_P1;PMS_P2;Temp;Humidity;BMP_temperature;BMP_pressure;BME280_temperature;BME280_humidity;BME280_pressure;Samples;Min_cycle;Max_cycle;Signal;HPM_P1;HPM_P2
2022/11/26 00:02:25;;;;;;;5.60;1.75;;;19.60;61.20;;;;;;5032954;28;19925;-56
2022/11/26 00:04:51;;;;;;;5.00;1.98;;;19.60;61.20;;;;;;5032429;28;20049;-56
2022/11/26 00:07:21;;;;;;;5.18;1.73;;;19.60;61.20;;;;;;5032224;28;20443;-57
2022/11/26 00:09:47;;;;;;;4.50;1.70;;;19.60;61.20;;;;;;5015814;28;20067;-57
2022/11/26 00:12:16;;;;;;;5.38;1.92;;;19.60;61.20;;;;;;5032978;28;20045;-56
2022/11/26 00:14:42;;;;;;;3.38;1.50;;;19.60;61.20;;;;;;5031690;28;20049;-56
2022/11/26 00:17:12;;;;;;;3.80;1.75;;;19.60;61.20;;;;;;5032853;28;20393;-57
2022/11/26 00:19:38;;;;;;;5.88;2.45;;;19.60;61.20;;;;;;5031252;28;20516;-56
2022/11/26 00:22:04;;;;;;;3.95;1.52;;;19.60;61.20;;;;;;5031505;28;20135;-56
2022/11/26 00:24:30;;;;;;;3.10;1.40;;;19.60;61.20;;;;;;5030673;28;20069;-56
2022/11/26 00:26:56;;;;;;;4.18;1.70;;;19.50;61.10;;;;;;5032048;28;20497;-56
2022/11/26 00:29:22;;;;;;;4.18;1.85;;;19.50;61.10;;;;;;5032049;28;20045;-56
2022/11/26 00:31:47;;;;;;;4.88;1.50;;;19.50;61.10;;;;;;5031873;28;20045;-57
2022/11/26 00:34:13;;;;;;;4.95;1.98;;;19.50;61.10;;;;;;5032233;28;20556;-57
2022/11/26 00:36:38;;;;;;;3.38;1.58;;;19.50;61.10;;;;;;5030963;28;20088;-57
2022/11/26 00:39:06;;;;;;;3.80;1.63;;;19.50;61.10;;;;;;5032372;28;20073;-56
2022/11/26 00:41:33;;;;;;;5.28;1.65;;;19.50;61.10;;;;;;5029920;28;20053;-57
2022/11/26 00:43:59;;;;;;;3.93;1.77;;;19.40;61.00;;;;;;5032462;28;20115;-57
2022/11/26 00:46:24;;;;;;;4.53;1.73;;;19.40;61.00;;;;;;5032198;28;20045;-57
2022/11/26 00:48:50;;;;;;;4.70;2.00;;;19.40;61.60;;;;;;5031413;28;20060;-57
2022/11/26 00:51:24;;;;;;;3.65;1.48;;;19.40;61.00;;;;;;5032248;28;20053;-57
2022/11/26 00:53:49;;;;;;;4.15;1.48;;;19.40;61.60;;;;;;5031630;28;20045;-57
2022/11/26 00:56:17;;;;;;;3.67;1.45;;;19.40;61.00;;;;;;5030435;28;20041;-57
2022/11/26 00:58:43;;;;;;;4.38;1.70;;;19.40;60.90;;;;;;5038790;28;20037;-57
2022/11/26 01:01:11;;;;;;;4.57;1.58;;;19.40;60.90;;;;;;5052187;28;20063;-57
2022/11/26 01:03:36;;;;;;;4.75;1.85;;;19.40;60.90;;;;;;5049643;28;20484;-57
2022/11/26 01:06:02;;;;;;;3.72;1.52;;;19.40;60.90;;;;;;5051880;28;20041;-56
2022/11/26 01:08:33;;;;;;;4.68;1.80;;;19.40;60.90;;;;;;5051694;28;20102;-57
2022/11/26 01:10:59;;;;;;;3.13;1.40;;;19.40;60.90;;;;;;5049695;28;20060;-57
2022/11/26 01:13:25;;;;;;;4.80;1.75;;;19.40;60.80;;;;;;5051948;28;20055;-57
2022/11/26 01:15:50;;;;;;;4.18;1.42;;;19.40;60.80;;;;;;5050741;28;20041;-57
2022/11/26 01:18:18;;;;;;;3.33;1.67;;;19.40;60.80;;;;;;5051241;28;20029;-57
2022/11/26 01:20:44;;;;;;;3.33;1.60;;;19.40;60.80;;;;;;5051188;28;20381;-57
2022/11/26 01:23:11;;;;;;;3.60;1.40;;;19.40;60.80;;;;;;5051486;28;20170;-57
2022/11/26 01:25:36;;;;;;;3.25;1.40;;;19.40;60.80;;;;;;5050499;28;20053;-57
2022/11/26 01:28:02;;;;;;;5.03;1.70;;;19.30;60.70;;;;;;5050410;28;20121;-56
2022/11/26 01:30:31;;;;;;;4.78;1.52;;;19.30;60.60;;;;;;5051285;28;20037;-58
2022/11/26 01:32:59;;;;;;;3.95;1.83;;;19.30;60.60;;;;;;5050772;28;20106;-57
2022/11/26 01:35:25;;;;;;;3.75;1.80;;;19.30;60.60;;;;;;5051721;28;20102;-56
2022/11/26 01:37:50;;;;;;;4.20;1.75;;;19.30;60.60;;;;;;5050482;28;20045;-57
2022/11/26 01:40:25;;;;;;;4.63;1.80;;;19.30;60.60;;;;;;5051484;28;20076;-56
2022/11/26 01:43:14;;;;;;;4.70;1.50;;;19.30;60.60;;;;;;5049761;28;20049;-57
2022/11/26 01:45:40;;;;;;;4.18;1.60;;;19.30;60.60;;;;;;5049198;28;20120;-57
2022/11/26 01:48:38;;;;;;;4.57;1.90;;;19.30;60.60;;;;;;5042790;28;20183;-57
2022/11/26 01:51:05;;;;;;;4.63;1.60;;;19.30;60.60;;;;;;5028439;28;20050;-57
2022/11/26 01:53:45;;;;;;;4.13;1.42;;;19.20;60.60;;;;;;5030414;28;20370;-56
2022/11/26 01:56:36;;;;;;;4.95;1.80;;;19.20;60.60;;;;;;5030544;28;20084;-57
2022/11/26 01:59:16;;;;;;;5.63;1.67;;;19.20;60.50;;;;;;5030142;28;20059;-57
2022/11/26 02:01:42;;;;;;;3.08;1.33;;;19.20;60.50;;;;;;5031139;28;20045;-57
2022/11/26 02:04:14;;;;;;;4.63;1.35;;;19.20;60.50;;;;;;5030142;28;20045;-57
2022/11/26 02:06:39;;;;;;;4.63;1.83;;;19.20;60.50;;;;;;5028857;28;20489;-57
2022/11/26 02:09:06;;;;;;;4.70;1.70;;;19.20;60.50;;;;;;5030175;28;20048;-57
2022/11/26 02:11:32;;;;;;;4.70;1.92;;;19.20;60.50;;;;;;5030832;28;20465;-57
2022/11/26 02:14:00;;;;;;;3.28;1.38;;;19.20;60.50;;;;;;5030694;28;20092;-56
2022/11/26 02:16:41;;;;;;;4.15;1.63;;;19.20;60.50;;;;;;5030156;28;20049;-56
2022/11/26 02:19:12;;;;;;;4.53;1.60;;;19.20;60.30;;;;;;5031492;28;20505;-57
2022/11/26 02:21:38;;;;;;;4.10;1.83;;;19.10;60.40;;;;;;5030042;28;20045;-57
2022/11/26 02:24:16;;;;;;;4.07;1.50;;;19.10;60.40;;;;;;5030217;28;20042;-57
2022/11/26 02:26:59;;;;;;;4.50;1.40;;;19.10;60.40;;;;;;5029510;28;20057;-57
2022/11/26 02:29:55;;;;;;;5.28;1.73;;;19.10;60.50;;;;;;5034888;28;20104;-57
2022/11/26 02:32:23;;;;;;;2.97;1.10;;;19.10;60.40;;;;;;5034729;28;20049;-57
2022/11/26 02:34:59;;;;;;;2.90;1.40;;;19.10;60.50;;;;;;5032556;28;20048;-57
2022/11/26 02:37:28;;;;;;;4.40;1.60;;;19.10;60.50;;;;;;5033618;28;20107;-57
2022/11/26 02:39:55;;;;;;;5.18;2.33;;;19.10;60.50;;;;;;5033638;28;20037;-58
2022/11/26 02:42:27;;;;;;;3.15;1.40;;;19.10;60.50;;;;;;5033717;28;20096;-57
2022/11/26 02:44:55;;;;;;;3.47;1.30;;;19.10;60.50;;;;;;5034607;28;20103;-57
2022/11/26 02:47:20;;;;;;;4.43;1.40;;;19.10;60.50;;;;;;5033566;28;20045;-57
2022/11/26 02:49:46;;;;;;;3.40;1.20;;;19.10;60.50;;;;;;5032462;28;20052;-57
2022/11/26 02:52:11;;;;;;;4.18;1.30;;;19.10;60.50;;;;;;5033287;28;20055;-57
2022/11/26 02:54:37;;;;;;;4.15;1.70;;;19.00;60.40;;;;;;5032882;28;20516;-57
2022/11/26 02:57:06;;;;;;;3.92;1.33;;;19.10;60.50;;;;;;5033782;28;20052;-57
2022/11/26 02:59:31;;;;;;;;;;;19.00;60.40;;;;;;5033501;28;20076;-57
2022/11/26 03:01:59;;;;;;;2.58;1.20;;;19.00;60.40;;;;;;5034210;28;19964;-57
2022/11/26 03:04:28;;;;;;;2.88;1.33;;;19.00;60.40;;;;;;5031878;28;20049;-57
2022/11/26 03:06:55;;;;;;;3.55;1.40;;;19.10;60.50;;;;;;5032519;28;20049;-57
2022/11/26 03:09:21;;;;;;;2.85;1.10;;;19.00;60.40;;;;;;5032291;28;20048;-57
2022/11/26 03:11:46;;;;;;;3.13;1.25;;;19.10;60.50;;;;;;5032416;28;20045;-57
2022/11/26 03:14:12;;;;;;;3.67;1.35;;;19.10;60.50;;;;;;5034347;28;20045;-57
2022/11/26 03:16:37;;;;;;;2.35;0.98;;;19.10;60.50;;;;;;5033068;28;20038;-57
2022/11/26 03:19:03;;;;;;;4.43;1.55;;;19.10;60.50;;;;;;5034037;28;20064;-56
2022/11/26 03:21:30;;;;;;;3.88;1.20;;;19.10;60.40;;;;;;5033584;28;20131;-57
2022/11/26 03:23:56;;;;;;;2.97;1.20;;;19.10;61.00;;;;;;5032825;28;20444;-57
2022/11/26 03:26:22;;;;;;;6.03;1.20;;;19.10;60.40;;;;;;5033683;28;20037;-57
2022/11/26 03:28:47;;;;;;;2.83;1.30;;;19.10;60.30;;;;;;5033412;28;20112;-56
2022/11/26 03:31:13;;;;;;;3.47;1.33;;;19.10;60.30;;;;;;5033221;28;20113;-57
2022/11/26 03:33:38;;;;;;;3.53;1.20;;;19.10;60.30;;;;;;5033647;28;20465;-56
2022/11/26 03:36:04;;;;;;;3.30;1.67;;;19.10;60.30;;;;;;5033683;28;20048;-57
2022/11/26 03:38:29;;;;;;;2.97;0.90;;;19.10;60.30;;;;;;5032332;28;20050;-57
2022/11/26 03:41:00;;;;;;;3.03;1.00;;;19.10;60.20;;;;;;5033188;28;20064;-57
2022/11/26 03:43:26;;;;;;;2.28;1.10;;;19.10;60.30;;;;;;5033604;28;20111;-57
2022/11/26 03:45:51;;;;;;;4.25;1.30;;;19.10;60.20;;;;;;5032298;28;20045;-57
2022/11/26 03:48:17;;;;;;;3.35;1.67;;;19.10;60.20;;;;;;5033457;28;20125;-57
2022/11/26 03:50:42;;;;;;;3.88;1.20;;;19.10;60.20;;;;;;5032969;28;20136;-57
2022/11/26 03:53:08;;;;;;;2.67;1.17;;;19.10;60.20;;;;;;5032578;28;20132;-56
2022/11/26 03:55:33;;;;;;;3.28;1.10;;;19.10;60.10;;;;;;5033613;28;20137;-57
2022/11/26 03:57:59;;;;;;;2.45;1.15;;;19.10;60.20;;;;;;5033440;28;20051;-56
2022/11/26 04:00:24;;;;;;;3.58;1.25;;;19.10;60.20;;;;;;5032204;28;20124;-57
2022/11/26 04:02:50;;;;;;;2.05;0.90;;;19.10;60.10;;;;;;5032962;28;20485;-57
2022/11/26 04:05:16;;;;;;;2.35;1.23;;;19.10;60.10;;;;;;5033043;28;20477;-56
2022/11/26 04:07:41;;;;;;;2.92;1.15;;;19.10;60.10;;;;;;5032248;28;20046;-57
2022/11/26 04:10:07;;;;;;;3.08;1.13;;;19.10;60.00;;;;;;5033289;28;20045;-57
2022/11/26 04:12:33;;;;;;;3.63;1.40;;;19.10;60.00;;;;;;5032054;28;20104;-61
2022/11/26 04:14:58;;;;;;;3.03;1.20;;;19.20;60.10;;;;;;5051224;28;20037;-57
2022/11/26 04:17:24;;;;;;;2.50;1.00;;;19.20;60.00;;;;;;5053012;28;20182;-57
2022/11/26 04:19:49;;;;;;;2.70;1.10;;;19.20;60.10;;;;;;5052028;28;20120;-57
2022/11/26 04:22:15;;;;;;;2.85;1.17;;;19.20;60.00;;;;;;5052918;28;20128;-57
2022/11/26 04:24:41;;;;;;;4.95;1.50;;;19.20;60.00;;;;;;5052250;28;20134;-57
2022/11/26 04:27:06;;;;;;;4.00;1.30;;;19.20;60.00;;;;;;5051721;28;20052;-57
2022/11/26 04:29:32;;;;;;;3.72;1.27;;;19.30;60.00;;;;;;5052283;28;20055;-57
2022/11/26 04:31:57;;;;;;;3.75;1.10;;;19.30;60.00;;;;;;5052668;28;20248;-57
2022/11/26 04:34:23;;;;;;;3.42;1.55;;;19.30;60.00;;;;;;5052237;28;20087;-57
2022/11/26 04:36:48;;;;;;;3.67;1.48;;;19.30;60.00;;;;;;5052292;28;20037;-57
2022/11/26 04:39:14;;;;;;;2.33;1.20;;;19.30;60.00;;;;;;5052636;28;20068;-57
2022/11/26 04:41:41;;;;;;;2.25;0.90;;;19.30;60.00;;;;;;5051427;28;20052;-57
2022/11/26 04:44:07;;;;;;;3.20;1.30;;;19.30;59.90;;;;;;5052658;28;20063;-57
2022/11/26 04:46:32;;;;;;;3.03;1.00;;;19.40;59.90;;;;;;5052012;28;20512;-57
2022/11/26 04:48:58;;;;;;;4.68;1.13;;;19.40;59.90;;;;;;5051545;28;20045;-57
2022/11/26 04:51:23;;;;;;;3.03;0.95;;;19.40;59.80;;;;;;5052414;28;20040;-57
2022/11/26 04:53:49;;;;;;;2.38;0.98;;;19.40;59.80;;;;;;5052287;28;20755;-57
2022/11/26 04:56:14;;;;;;;1.80;0.98;;;19.40;59.80;;;;;;5051744;28;20036;-57
2022/11/26 04:58:40;;;;;;;1.75;0.90;;;19.40;59.80;;;;;;5051969;28;20044;-57
2022/11/26 05:01:06;;;;;;;3.60;1.20;;;19.40;59.80;;;;;;5048122;28;20095;-57
2022/11/26 05:03:31;;;;;;;2.65;1.20;;;19.40;59.80;;;;;;5030736;28;20053;-57
2022/11/26 05:05:57;;;;;;;2.75;1.00;;;19.40;59.80;;;;;;5031306;28;20051;-57
2022/11/26 05:08:22;;;;;;;2.75;1.17;;;19.50;59.80;;;;;;5032116;28;20042;-57
2022/11/26 05:10:53;;;;;;;2.90;1.02;;;19.50;59.80;;;;;;5031018;28;20041;-57
2022/11/26 05:13:18;;;;;;;2.95;1.10;;;19.50;59.70;;;;;;5032305;28;20041;-57
2022/11/26 05:15:44;;;;;;;1.75;0.98;;;19.50;59.70;;;;;;5031299;28;20500;-57
2022/11/26 05:18:09;;;;;;;2.05;0.90;;;19.50;59.70;;;;;;5031799;28;20052;-57
2022/11/26 05:20:35;;;;;;;4.07;1.15;;;19.50;59.70;;;;;;5031553;28;20042;-57
2022/11/26 05:23:00;;;;;;;2.50;1.15;;;19.50;59.70;;;;;;5031122;28;20126;-57
2022/11/26 05:25:26;;;;;;;1.95;0.80;;;19.60;59.60;;;;;;5032073;28;20516;-57
2022/11/26 05:27:51;;;;;;;2.03;0.90;;;19.60;59.70;;;;;;5032060;28;20413;-57
2022/11/26 05:30:17;;;;;;;1.92;0.88;;;19.60;59.60;;;;;;5031202;28;20482;-57
2022/11/26 05:32:43;;;;;;;2.45;1.25;;;19.60;59.60;;;;;;5031317;28;20417;-57
2022/11/26 05:35:09;;;;;;;1.85;0.85;;;19.60;59.60;;;;;;5032045;28;20049;-57
2022/11/26 05:37:34;;;;;;;2.58;0.90;;;19.60;59.60;;;;;;5030891;28;20272;-56
2022/11/26 05:40:00;;;;;;;2.97;1.02;;;19.60;59.50;;;;;;5032007;28;20045;-57
2022/11/26 05:42:25;;;;;;;2.00;0.80;;;19.70;59.60;;;;;;5031435;28;20065;-57
2022/11/26 05:44:51;;;;;;;2.65;0.90;;;19.70;59.60;;;;;;5030593;28;20081;-56
2022/11/26 05:47:16;;;;;;;2.78;0.98;;;19.70;59.50;;;;;;5031761;28;20046;-57
2022/11/26 05:49:42;;;;;;;2.55;1.00;;;19.70;59.50;;;;;;5031613;28;20043;-57
2022/11/26 05:52:07;;;;;;;2.08;0.82;;;19.70;59.50;;;;;;5030874;28;20045;-56
2022/11/26 05:54:33;;;;;;;2.72;1.02;;;19.70;59.50;;;;;;5031512;28;20048;-56
2022/11/26 05:56:58;;;;;;;2.55;1.00;;;19.70;59.50;;;;;;5031646;28;20068;-57
2022/11/26 05:59:24;;;;;;;2.75;1.30;;;19.70;59.50;;;;;;5031112;28;20381;-57
2022/11/26 06:01:50;;;;;;;2.63;1.00;;;19.70;59.50;;;;;;5031369;28;20449;-57
2022/11/26 06:04:15;;;;;;;2.40;1.08;;;19.80;59.50;;;;;;5035484;28;20041;-56
2022/11/26 06:06:41;;;;;;;3.58;1.10;;;19.80;59.50;;;;;;5034162;28;20045;-56
2022/11/26 06:09:06;;;;;;;1.67;0.90;;;19.80;59.50;;;;;;5035331;28;20072;-57
2022/11/26 06:11:32;;;;;;;1.80;0.80;;;19.80;59.50;;;;;;5035293;28;20080;-56
2022/11/26 06:13:57;;;;;;;1.38;0.70;;;19.80;59.50;;;;;;5034432;28;20135;-56
2022/11/26 06:16:23;;;;;;;2.63;1.05;;;19.80;59.40;;;;;;5035381;28;20481;-56
2022/11/26 06:18:48;;;;;;;2.50;1.00;;;19.80;59.40;;;;;;5035166;28;20037;-56
2022/11/26 06:21:14;;;;;;;1.88;0.82;;;19.90;59.40;;;;;;5034182;28;20086;-57
2022/11/26 06:23:39;;;;;;;2.15;0.98;;;19.80;59.40;;;;;;5035720;28;20045;-56
2022/11/26 06:26:08;;;;;;;2.33;1.10;;;19.90;59.40;;;;;;5054202;28;20060;-57
2022/11/26 06:28:34;;;;;;;2.20;1.10;;;19.90;59.40;;;;;;5054626;28;20045;-57
2022/11/26 06:31:00;;;;;;;1.45;0.80;;;19.90;59.40;;;;;;5053769;28;20131;-57
2022/11/26 06:33:25;;;;;;;3.28;1.08;;;19.90;59.30;;;;;;5054222;28;20921;-57
2022/11/26 06:35:51;;;;;;;2.20;1.20;;;19.90;59.30;;;;;;5054339;28;20045;-57
2022/11/26 06:38:16;;;;;;;2.05;1.13;;;19.90;59.30;;;;;;5055015;28;20045;-57
2022/11/26 06:40:42;;;;;;;2.67;0.80;;;19.90;59.30;;;;;;5053673;28;20052;-57
2022/11/26 06:43:07;;;;;;;2.00;0.98;;;19.90;59.30;;;;;;5054439;28;20063;-58
2022/11/26 06:45:33;;;;;;;1.92;0.98;;;19.90;59.30;;;;;;5054259;28;20131;-57
2022/11/26 06:47:58;;;;;;;2.65;0.93;;;20.00;59.30;;;;;;5053982;28;20129;-57
2022/11/26 06:50:24;;;;;;;1.65;0.80;;;20.00;59.30;;;;;;5054650;28;20064;-57
2022/11/26 06:52:51;;;;;;;1.98;0.77;;;19.90;59.30;;;;;;5054248;28;20048;-57
2022/11/26 06:55:17;;;;;;;2.78;0.90;;;20.00;59.30;;;;;;5054086;28;20041;-57
2022/11/26 06:57:42;;;;;;;2.28;1.00;;;20.00;59.30;;;;;;5054132;28;20098;-57
2022/11/26 07:00:09;;;;;;;2.40;1.10;;;19.90;59.30;;;;;;5054377;28;20048;-58
2022/11/26 07:02:34;;;;;;;1.50;0.80;;;19.90;59.20;;;;;;5053317;28;20101;-57
2022/11/26 07:05:00;;;;;;;2.40;0.98;;;20.00;59.30;;;;;;5052698;28;20037;-57
2022/11/26 07:07:25;;;;;;;2.28;0.80;;;20.00;59.30;;;;;;5054022;28;20045;-57
2022/11/26 07:09:51;;;;;;;1.73;1.05;;;20.00;59.30;;;;;;5053134;28;20048;-57
2022/11/26 07:12:16;;;;;;;2.50;1.15;;;20.00;59.20;;;;;;5054306;28;20045;-57
2022/11/26 07:14:42;;;;;;;2.03;0.90;;;19.90;59.20;;;;;;5053551;28;20040;-57
2022/11/26 07:17:07;;;;;;;2.92;1.20;;;20.00;59.20;;;;;;5053206;28;20388;-57
2022/11/26 07:19:33;;;;;;;2.08;0.82;;;20.00;59.30;;;;;;5053452;28;20128;-57
2022/11/26 07:21:58;;;;;;;1.83;1.15;;;20.00;59.30;;;;;;5054126;28;20128;-57
2022/11/26 07:24:24;;;;;;;2.30;1.20;;;19.90;59.20;;;;;;5053098;28;20182;-57
2022/11/26 07:26:50;;;;;;;2.08;0.98;;;20.00;59.20;;;;;;5053562;28;20131;-57
2022/11/26 07:29:15;;;;;;;2.03;0.90;;;19.90;59.20;;;;;;5054073;28;20045;-57
2022/11/26 07:31:41;;;;;;;2.75;1.05;;;20.00;59.30;;;;;;5052947;28;20124;-57
2022/11/26 07:34:06;;;;;;;1.50;1.00;;;20.00;59.20;;;;;;5053889;28;20088;-58
2022/11/26 07:36:32;;;;;;;3.88;1.00;;;20.00;59.20;;;;;;5052783;28;20532;-57
2022/11/26 07:38:58;;;;;;;2.33;1.10;;;20.00;59.10;;;;;;5053751;28;20564;-57
2022/11/26 07:41:24;;;;;;;3.38;1.08;;;20.00;59.10;;;;;;5053571;28;20049;-57
2022/11/26 07:43:50;;;;;;;2.80;1.10;;;20.00;59.10;;;;;;5052646;28;20072;-57
2022/11/26 07:46:18;;;;;;;3.63;1.08;;;20.00;59.10;;;;;;5053161;28;20080;-57
2022/11/26 07:48:43;;;;;;;3.67;1.13;;;20.00;59.10;;;;;;5053323;28;20051;-57
2022/11/26 07:51:22;;;;;;;6.32;1.50;;;20.00;59.10;;;;;;5052803;28;20045;-57
2022/11/26 07:53:47;;;;;;;3.60;1.55;;;20.00;59.10;;;;;;5053233;28;20163;-57
2022/11/26 07:56:13;;;;;;;2.53;1.10;;;20.10;59.20;;;;;;5053293;28;20063;-57
2022/11/26 07:58:39;;;;;;;2.00;1.10;;;20.00;59.10;;;;;;5052409;28;20069;-57
2022/11/26 08:01:06;;;;;;;2.72;1.23;;;20.00;59.10;;;;;;5052964;28;20131;-57
2022/11/26 08:03:31;;;;;;;2.65;1.08;;;20.10;59.20;;;;;;5053019;28;20460;-57
2022/11/26 08:05:57;;;;;;;2.05;1.30;;;20.10;59.30;;;;;;5051333;28;20041;-57
2022/11/26 08:08:22;;;;;;;4.75;1.17;;;20.00;59.30;;;;;;5053275;28;20037;-56
2022/11/26 08:10:48;;;;;;;4.05;1.42;;;20.00;59.40;;;;;;5051556;28;20488;-56
2022/11/26 08:13:13;;;;;;;2.50;1.23;;;20.10;59.60;;;;;;5037306;28;20049;-56
2022/11/26 08:15:39;;;;;;;2.25;1.20;;;20.10;59.70;;;;;;5031777;28;20041;-56
2022/11/26 08:18:04;;;;;;;3.70;1.42;;;20.10;59.90;;;;;;5033007;28;20045;-56
2022/11/26 08:20:30;;;;;;;3.63;1.20;;;20.10;60.00;;;;;;5032057;28;20044;-56
2022/11/26 08:22:55;;;;;;;2.63;1.20;;;20.20;60.10;;;;;;5033116;28;20122;-56
2022/11/26 08:25:21;;;;;;;2.08;1.00;;;20.10;60.20;;;;;;5030967;28;20136;-56
2022/11/26 08:27:47;;;;;;;2.38;1.30;;;20.10;60.30;;;;;;5031985;28;20152;-56
2022/11/26 08:30:13;;;;;;;2.47;1.20;;;20.20;60.40;;;;;;5032893;28;20069;-56
2022/11/26 08:32:38;;;;;;;2.47;1.20;;;20.20;60.50;;;;;;5032347;28;20045;-56
2022/11/26 08:35:04;;;;;;;4.07;1.15;;;20.20;60.60;;;;;;5032414;28;20397;-56
2022/11/26 08:37:30;;;;;;;4.15;1.35;;;20.20;60.60;;;;;;5032348;28;20045;-56
2022/11/26 08:39:55;;;;;;;9.55;1.98;;;20.30;60.80;;;;;;5031890;28;20049;-56
2022/11/26 08:42:21;;;;;;;2.00;1.20;;;20.20;60.70;;;;;;5032321;28;20060;-56
2022/11/26 08:44:46;;;;;;;8.82;1.33;;;20.30;60.80;;;;;;5031557;28;20049;-56
2022/11/26 08:47:12;;;;;;;2.70;1.15;;;20.30;60.80;;;;;;5030833;28;20045;-56
2022/11/26 08:49:37;;;;;;;2.67;1.15;;;20.20;60.80;;;;;;5032343;28;20040;-57
2022/11/26 08:52:03;;;;;;;2.92;1.10;;;20.30;60.90;;;;;;5032564;28;20045;-56
2022/11/26 08:54:29;;;;;;;4.10;1.42;;;20.30;60.90;;;;;;5031245;28;20416;-56
2022/11/26 08:56:55;;;;;;;2.15;1.40;;;20.30;60.90;;;;;;5032261;28;20045;-57
2022/11/26 08:59:23;;;;;;;2.35;1.20;;;20.30;60.90;;;;;;5032413;28;20064;-57
2022/11/26 09:01:48;;;;;;;3.20;1.48;;;20.30;61.00;;;;;;5031253;28;20128;-57
2022/11/26 09:04:14;;;;;;;3.67;1.85;;;20.30;61.00;;;;;;5032207;28;20124;-59
2022/11/26 09:06:40;;;;;;;4.82;2.17;;;20.30;61.00;;;;;;5032128;28;20140;-57
2022/11/26 09:09:12;;;;;;;3.70;1.63;;;20.30;61.00;;;;;;5029868;28;20045;-57
2022/11/26 09:11:46;;;;;;;4.03;1.67;;;20.40;60.70;;;;;;5023233;28;20046;-57
2022/11/26 09:14:12;;;;;;;3.80;1.40;;;20.40;60.70;;;;;;5027797;28;20437;-59
2022/11/26 09:16:38;;;;;;;2.95;1.67;;;20.30;60.60;;;;;;5030701;28;20045;-57
2022/11/26 09:19:05;;;;;;;4.78;1.80;;;20.40;60.60;;;;;;5031840;28;20053;-57
2022/11/26 09:21:30;;;;;;;3.88;1.80;;;20.30;60.60;;;;;;5030902;28;20060;-57
2022/11/26 09:23:56;;;;;;;3.08;1.50;;;20.40;60.80;;;;;;5029918;28;20045;-57
2022/11/26 09:26:21;;;;;;;4.13;1.75;;;20.40;60.90;;;;;;5031589;28;20043;-56
2022/11/26 09:28:47;;;;;;;3.88;1.90;;;20.40;60.90;;;;;;5031610;28;20121;-57
2022/11/26 09:31:13;;;;;;;5.10;1.67;;;20.40;61.00;;;;;;5031409;28;20041;-57
2022/11/26 09:33:38;;;;;;;3.38;1.58;;;20.40;61.00;;;;;;5032048;28;20042;-57
2022/11/26 09:36:11;;;;;;;4.28;1.80;;;20.40;61.00;;;;;;5030946;28;20375;-57
2022/11/26 09:38:37;;;;;;;3.13;1.73;;;20.40;61.00;;;;;;5034445;28;20429;-57
2022/11/26 09:41:25;;;;;;;3.25;1.98;;;20.40;61.00;;;;;;5036218;28;20087;-57
2022/11/26 09:43:51;;;;;;;;;;;20.40;61.10;;;;;;5034568;28;20124;-57
2022/11/26 09:46:16;;;;;;;2.28;1.48;;;20.30;61.00;;;;;;5036127;28;20012;-57
2022/11/26 09:48:42;;;;;;;3.58;1.70;;;20.40;61.10;;;;;;5001899;28;20064;-57
2022/11/26 09:51:10;;;;;;;3.30;1.80;;;20.40;61.10;;;;;;5034529;28;20041;-57
2022/11/26 09:53:45;;;;;;;3.00;1.63;;;20.40;61.10;;;;;;5034788;28;20049;-57
2022/11/26 09:56:13;;;;;;;3.45;2.05;;;20.40;61.00;;;;;;5018613;28;20057;-57
2022/11/26 09:58:39;;;;;;;5.82;1.90;;;20.40;60.90;;;;;;5033953;28;20482;-58
2022/11/26 10:01:05;;;;;;;3.65;1.95;;;20.40;60.90;;;;;;5036077;28;20080;-57
2022/11/26 10:03:32;;;;;;;3.65;2.05;;;20.40;60.80;;;;;;5035776;28;20037;-57
2022/11/26 10:06:06;;;;;;;3.80;2.10;;;20.40;60.80;;;;;;5033381;28;20056;-57
2022/11/26 10:09:04;;;;;;;5.55;2.47;;;20.30;60.70;;;;;;5035314;28;20053;-56
2022/11/26 10:11:49;;;;;;;4.22;2.17;;;20.30;60.60;;;;;;5026254;28;20081;-57
2022/11/26 10:14:36;;;;;;;7.10;2.17;;;20.30;60.80;;;;;;5016168;28;20405;-61
2022/11/26 10:17:47;;;;;;;6.35;2.03;;;20.30;60.90;;;;;;5013214;28;20050;-57
2022/11/26 10:20:55;;;;;;;6.50;2.85;;;20.30;60.90;;;;;;5015510;28;20057;-57
2022/11/26 10:23:44;;;;;;;4.68;2.10;;;20.30;60.90;;;;;;5014537;28;20050;-56
2022/11/26 10:26:17;;;;;;;7.00;2.38;;;20.30;60.90;;;;;;5013076;28;20081;-57
2022/11/26 10:28:47;;;;;;;4.30;2.40;;;20.30;61.00;;;;;;5014576;28;20041;-57
2022/11/26 10:31:23;;;;;;;4.13;1.95;;;20.30;61.00;;;;;;5017374;28;20046;-57
2022/11/26 10:33:52;;;;;;;6.43;2.90;;;20.30;61.00;;;;;;5014059;28;20045;-57
2022/11/26 10:36:40;;;;;;;4.97;2.25;;;20.30;61.10;;;;;;5015068;28;20046;-58
2022/11/26 10:39:09;;;;;;;5.35;2.47;;;20.30;61.10;;;;;;5013582;28;21538;-57
2022/11/26 10:41:35;;;;;;;6.35;3.05;;;20.30;61.10;;;;;;5015031;28;20089;-57
2022/11/26 10:44:41;;;;;;;4.97;3.08;;;20.30;61.10;;;;;;5014207;28;20453;-57
2022/11/26 10:47:28;;;;;;;9.45;2.83;;;20.30;61.10;;;;;;5021370;28;20053;-58
2022/11/26 10:50:23;;;;;;;6.97;2.80;;;20.30;61.20;;;;;;5032494;28;20041;-57
2022/11/26 10:52:49;;;;;;;5.97;2.95;;;20.30;61.40;;;;;;5032204;28;20037;-57
2022/11/26 10:55:20;;;;;;;7.35;3.22;;;20.30;61.40;;;;;;5034506;28;20489;-57
2022/11/26 10:57:56;;;;;;;5.13;3.03;;;20.20;61.40;;;;;;5034872;28;20087;-57
2022/11/26 11:00:48;;;;;;;10.07;3.35;;;20.20;61.80;;;;;;5023503;28;20049;-56
2022/11/26 11:03:20;;;;;;;10.55;3.17;;;20.20;61.90;;;;;;5016635;28;20099;-55
2022/11/26 11:05:46;;;;;;;7.38;3.33;;;20.20;61.90;;;;;;5033181;28;20680;-56
2022/11/26 11:08:13;;;;;;;9.38;3.72;;;20.20;61.90;;;;;;5032919;28;20124;-56
2022/11/26 11:10:51;;;;;;;8.23;3.17;;;20.30;62.00;;;;;;5056403;28;20591;-56
2022/11/26 11:13:16;;;;;;;7.63;3.35;;;20.20;62.00;;;;;;5051186;28;20562;-55
2022/11/26 11:15:42;;;;;;;6.70;3.22;;;20.20;62.00;;;;;;5052418;28;20045;-56
2022/11/26 11:18:16;;;;;;;5.93;3.28;;;20.20;62.10;;;;;;5033143;28;20138;-56
2022/11/26 11:20:42;;;;;;;8.07;3.58;;;20.20;62.20;;;;;;5035590;28;20083;-55
2022/11/26 11:23:11;;;;;;;9.43;4.28;;;20.20;62.20;;;;;;5049176;28;20453;-56
2022/11/26 11:25:42;;;;;;;7.05;3.47;;;20.20;62.30;;;;;;5053542;28;20128;-56
2022/11/26 11:28:11;;;;;;;7.55;3.38;;;20.20;62.30;;;;;;5042439;28;20488;-55
2022/11/26 11:30:37;;;;;;;7.53;3.70;;;20.20;62.30;;;;;;5032790;28;20128;-56
2022/11/26 11:33:19;;;;;;;7.30;3.72;;;20.20;62.30;;;;;;5051440;28;20390;-57
2022/11/26 11:36:03;;;;;;;9.00;3.78;;;20.20;62.60;;;;;;5032306;28;20378;-57
2022/11/26 11:38:31;;;;;;;7.25;3.95;;;20.20;62.40;;;;;;5049853;28;20052;-56
2022/11/26 11:40:57;;;;;;;9.63;4.10;;;20.20;62.40;;;;;;5032085;28;20053;-56
2022/11/26 11:43:23;;;;;;;6.32;3.80;;;20.20;62.40;;;;;;5047702;28;20049;-56
2022/11/26 11:46:00;;;;;;;7.68;4.30;;;20.20;62.40;;;;;;5048339;28;20065;-57
2022/11/26 11:48:52;;;;;;;6.45;3.80;;;20.20;62.40;;;;;;5035024;28;20065;-56
2022/11/26 11:51:43;;;;;;;6.13;4.28;;;20.20;62.50;;;;;;5027081;28;20508;-57
2022/11/26 11:54:45;;;;;;;8.15;4.03;;;20.20;62.60;;;;;;5033323;28;20045;-57
2022/11/26 11:57:20;;;;;;;8.10;4.47;;;20.20;62.50;;;;;;5035044;28;20042;-57
2022/11/26 12:00:09;;;;;;;8.65;4.47;;;20.20;62.60;;;;;;5031499;28;20081;-56
2022/11/26 12:03:24;;;;;;;7.53;4.20;;;20.20;62.60;;;;;;5032732;28;20393;-57
2022/11/26 12:06:07;;;;;;;6.80;3.90;;;20.20;62.50;;;;;;5009523;28;20049;-56
2022/11/26 12:08:54;;;;;;;6.93;4.05;;;20.20;62.40;;;;;;5033466;28;20053;-56
2022/11/26 12:11:23;;;;;;;7.47;4.53;;;20.20;62.30;;;;;;5033119;28;20046;-56
2022/11/26 12:14:00;;;;;;;8.93;4.65;;;20.10;62.20;;;;;;5048596;28;20092;-56
2022/11/26 12:16:27;;;;;;;8.45;4.38;;;20.10;62.20;;;;;;5033338;28;20076;-56
2022/11/26 12:19:22;;;;;;;6.95;4.25;;;20.20;62.20;;;;;;5047901;28;20175;-56
2022/11/26 12:21:56;;;;;;;10.57;4.95;;;20.10;62.10;;;;;;5032296;28;20053;-56
2022/11/26 12:24:44;;;;;;;9.38;4.93;;;20.10;62.10;;;;;;5048732;28;20049;-56
2022/11/26 12:27:14;;;;;;;8.40;4.85;;;20.10;62.70;;;;;;5047700;28;20072;-56
2022/11/26 12:29:49;;;;;;;11.00;5.28;;;20.10;62.20;;;;;;5032605;28;20057;-56
2022/11/26 12:32:25;;;;;;;9.73;4.72;;;20.10;62.20;;;;;;5031216;28;20098;-56
2022/11/26 12:34:53;;;;;;;9.40;5.13;;;20.10;62.30;;;;;;5033021;28;20053;-56
2022/11/26 12:37:19;;;;;;;7.60;4.65;;;20.10;62.40;;;;;;5032004;28;20072;-56
2022/11/26 12:40:00;;;;;;;10.07;4.68;;;20.10;62.50;;;;;;5030783;28;20488;-56
2022/11/26 12:42:54;;;;;;;10.40;5.03;;;20.10;62.50;;;;;;5032725;28;20103;-56
2022/11/26 12:45:50;;;;;;;9.15;5.03;;;20.20;62.60;;;;;;5031645;28;20485;-57
2022/11/26 12:48:32;;;;;;;7.68;5.20;;;20.10;62.60;;;;;;5032959;28;20136;-56
2022/11/26 12:51:17;;;;;;;10.13;5.18;;;20.20;62.60;;;;;;5047593;28;20481;-56
2022/11/26 12:53:46;;;;;;;9.95;5.18;;;20.10;62.60;;;;;;5031570;28;20397;-57
2022/11/26 12:56:22;;;;;;;10.45;4.85;;;20.10;62.60;;;;;;5048097;28;20041;-57
2022/11/26 12:58:55;;;;;;;9.63;5.38;;;20.20;63.00;;;;;;5047500;28;20378;-57
2022/11/26 13:01:22;;;;;;;8.88;4.60;;;20.20;62.70;;;;;;5046823;28;20619;-56